Terminal Aerodrome Forecast
Issued by NWS

Home | Current Version | Previous Version | Text Only | Print | Product List | Glossary On
Versions: 1 2 3 4 5 6 7 8 9 10 11 12 13 14 15 16 17
000
FTUS43 KDMX 270520
TAFMCW
TAF
KMCW 270520Z 2706/2806 27008KT P6SM SKC
     FM271600 30016G29KT P6SM SCT250
     FM272300 31010KT P6SM SCT080 BKN160
     FM280200 32008KT P6SM OVC050=

USA.gov is the U.S. government's official web portal to all federal, state and local government web resources and services.